MMGL/GDL METAR and TAF weather

Enter ICAO airport designator
Station Type Date Time Source
MMGL METAR 2019/06/19 05:49 UTC NOAA

MMGL 190549Z 23005KT 8SM FEW030 BKN100 21/13 A3022 RMK SLP103 52025 913 8/530


Station Type Date Time Source
MMGL Decoded METAR 2019/06/19 05:49 UTC NOAA

Don Miguel / Guadalaj, Mexico (MMGL) 20-31N 103-19W
Jun 19, 2019 - 01:49 AM EDT / 2019.06.19 0549 UTC
Wind: from the SW (230 degrees) at 6 MPH (5 KT):0
Visibility: 8 mile(s):0
Sky conditions: mostly cloudy
Temperature: 69 F (21 C)
Dew Point: 55 F (13 C)
Relative Humidity: 60%
Pressure (altimeter): 30.22 in. Hg (1023 hPa)
Pressure tendency: 0.07 inches (2.5 hPa) higher than three hours ago
ob: MMGL 190549Z 23005KT 8SM FEW030 BKN100 21/13 A3022 RMK SLP103 52025 913 8/530
cycle: 6

Station Type Date Time Source
MMGL TAF 2019/06/19 06:34 UTC NOAA

TAF MMGL 190428Z 1906/2012 27010KT P6SM SCT030 TX30/1922Z TN16/1912Z
TEMPO 1906/1910 5SM -RA BKN020CB
FM191000 29006KT P6SM BKN025 BKN080
TEMPO 1910/1914 4SM TSRA BKN020CB
FM191800 32010KT P6SM SCT030 BKN080 BKN250
FM200600 28007KT P6SM SCT030 SCT250

Example: see airport list